Time;durP1;ratioP1;P1;durP2;ratioP2;P2;SDS_P1;SDS_P2;PMS_P1;PMS_P2;Temp;Humidity;BMP_temperature;BMP_pressure;BME280_temperature;BME280_humidity;BME280_pressure;Samples;Min_cycle;Max_cycle;Signal;HPM_P1;HPM_P2
2021/10/09 00:00:09;;;;;;;28.45;23.08;;;11.20;99.90;;;;;;5112383;28;20088;-63
2021/10/09 00:02:35;;;;;;;25.02;22.13;;;11.20;99.90;;;;;;5112274;28;20118;-63
2021/10/09 00:05:01;;;;;;;31.08;24.00;;;11.20;99.90;;;;;;5111960;28;20118;-63
2021/10/09 00:07:27;;;;;;;30.45;23.83;;;11.20;99.90;;;;;;5112116;28;20184;-63
2021/10/09 00:09:57;;;;;;;32.70;23.98;;;11.20;99.90;;;;;;5112019;28;20044;-63
2021/10/09 00:12:23;;;;;;;26.55;23.23;;;11.30;99.90;;;;;;5112018;28;20040;-63
2021/10/09 00:14:49;;;;;;;32.70;25.23;;;11.20;99.90;;;;;;5094112;28;20032;-63
2021/10/09 00:17:17;;;;;;;28.65;23.52;;;11.20;99.90;;;;;;5111925;28;20035;-63
2021/10/09 00:19:43;;;;;;;30.73;24.30;;;11.20;99.90;;;;;;5112090;28;20039;-63
2021/10/09 00:22:08;;;;;;;30.83;23.88;;;11.20;99.90;;;;;;5112187;28;20496;-63
2021/10/09 00:24:34;;;;;;;32.28;23.52;;;11.10;99.90;;;;;;5111730;28;20055;-63
2021/10/09 00:27:00;;;;;;;30.40;23.67;;;11.10;99.90;;;;;;5111615;28;20047;-63
2021/10/09 00:29:25;;;;;;;27.65;23.30;;;11.10;99.90;;;;;;5112002;28;20076;-63
2021/10/09 00:31:51;;;;;;;31.38;24.13;;;11.10;99.90;;;;;;5111731;28;20032;-63
2021/10/09 00:34:16;;;;;;;28.60;23.42;;;11.10;99.90;;;;;;5111920;28;20043;-63
2021/10/09 00:36:42;;;;;;;30.33;24.38;;;11.10;99.90;;;;;;5111920;28;20084;-63
2021/10/09 00:39:07;;;;;;;30.75;24.60;;;11.00;99.90;;;;;;5112102;28;20044;-63
2021/10/09 00:41:33;;;;;;;34.40;25.10;;;11.00;99.90;;;;;;5111670;28;20043;-63
2021/10/09 00:44:10;;;;;;;25.23;21.92;;;11.00;99.90;;;;;;5111907;28;20109;-63
2021/10/09 00:46:38;;;;;;;30.13;23.77;;;11.00;99.90;;;;;;5111708;28;20054;-63
2021/10/09 00:49:04;;;;;;;30.85;25.52;;;10.90;99.90;;;;;;5111686;28;20089;-63
2021/10/09 00:51:29;;;;;;;36.60;26.95;;;11.00;99.90;;;;;;5113895;28;20036;-63
2021/10/09 00:53:59;;;;;;;30.40;24.27;;;11.00;99.90;;;;;;5115443;28;20530;-63
2021/10/09 00:56:26;;;;;;;37.88;25.50;;;11.00;99.90;;;;;;5115650;28;20043;-62
2021/10/09 00:58:54;;;;;;;32.38;25.83;;;10.90;99.90;;;;;;5115173;28;20568;-62
2021/10/09 01:01:19;;;;;;;29.77;24.65;;;11.00;99.90;;;;;;5115446;28;20063;-62
2021/10/09 01:03:47;;;;;;;31.42;24.58;;;10.90;99.90;;;;;;5115203;28;20090;-62
2021/10/09 01:06:13;;;;;;;31.83;25.52;;;10.90;99.90;;;;;;5115119;28;20047;-62
2021/10/09 01:08:38;;;;;;;37.88;25.92;;;10.90;99.90;;;;;;5115176;28;20123;-62
2021/10/09 01:11:05;;;;;;;30.50;24.40;;;10.90;99.90;;;;;;5115238;28;20081;-62
2021/10/09 01:13:30;;;;;;;34.83;25.92;;;10.90;99.90;;;;;;5115175;28;20075;-62
2021/10/09 01:15:56;;;;;;;30.52;24.45;;;10.90;99.90;;;;;;5096955;28;20071;-62
2021/10/09 01:18:21;;;;;;;31.65;24.15;;;10.90;99.90;;;;;;5114961;28;20035;-63
2021/10/09 01:20:48;;;;;;;32.95;24.52;;;10.90;99.90;;;;;;5114877;28;20498;-63
2021/10/09 01:23:14;;;;;;;31.67;24.35;;;10.90;99.90;;;;;;5114982;28;20046;-63
2021/10/09 01:25:40;;;;;;;30.48;24.58;;;10.90;99.90;;;;;;5114942;28;20094;-62
2021/10/09 01:28:07;;;;;;;33.75;24.85;;;10.90;99.90;;;;;;5114780;28;20031;-63
2021/10/09 01:30:33;;;;;;;35.60;25.35;;;10.80;99.90;;;;;;5114867;28;20067;-63
2021/10/09 01:33:00;;;;;;;27.83;22.70;;;10.80;99.90;;;;;;5114660;28;20067;-63
2021/10/09 01:35:25;;;;;;;32.90;24.77;;;10.80;99.90;;;;;;5114679;28;20465;-62
2021/10/09 01:37:51;;;;;;;30.88;24.13;;;10.80;99.90;;;;;;5114530;28;20122;-63
2021/10/09 01:40:17;;;;;;;32.90;23.95;;;10.80;99.90;;;;;;5114786;28;20044;-63
2021/10/09 01:42:43;;;;;;;26.45;22.20;;;10.70;99.90;;;;;;5115005;28;20520;-62
2021/10/09 01:45:11;;;;;;;33.70;22.73;;;10.80;99.90;;;;;;5114626;28;20169;-62
2021/10/09 01:47:41;;;;;;;31.13;23.40;;;10.70;99.90;;;;;;5114867;28;20054;-62
2021/10/09 01:50:08;;;;;;;32.50;22.88;;;10.70;99.90;;;;;;5114328;28;20038;-63
2021/10/09 01:52:33;;;;;;;35.47;24.35;;;10.70;99.90;;;;;;5114535;28;20108;-62
2021/10/09 01:54:59;;;;;;;30.85;24.20;;;10.60;99.90;;;;;;5114468;28;20465;-62
2021/10/09 01:57:24;;;;;;;37.72;25.55;;;10.60;99.90;;;;;;5114668;28;20100;-62
2021/10/09 01:59:50;;;;;;;33.88;24.33;;;10.60;99.90;;;;;;5114305;28;20039;-63
2021/10/09 02:02:16;;;;;;;34.35;24.60;;;10.60;99.90;;;;;;5113264;28;20031;-62
2021/10/09 02:04:41;;;;;;;35.25;24.13;;;10.50;99.90;;;;;;5114017;28;20054;-62
2021/10/09 02:07:12;;;;;;;32.42;24.77;;;10.50;99.90;;;;;;5114034;28;20114;-62
2021/10/09 02:09:38;;;;;;;35.70;25.00;;;10.50;99.90;;;;;;5114190;28;20035;-63
2021/10/09 02:12:04;;;;;;;34.67;24.95;;;10.50;99.90;;;;;;5114016;28;20089;-63
2021/10/09 02:14:43;;;;;;;32.90;23.95;;;10.40;99.90;;;;;;5114037;28;20096;-63
2021/10/09 02:17:33;;;;;;;33.22;24.40;;;10.50;99.90;;;;;;5113963;28;20044;-62
2021/10/09 02:25:56;;;;;;;34.72;24.30;;;10.30;99.90;;;;;;5113601;28;20055;-62
2021/10/09 02:28:18;;;;;;;38.38;26.73;;;10.40;99.90;;;;;;5110608;28;20046;-62
2021/10/09 02:30:44;;;;;;;39.72;27.52;;;10.30;99.90;;;;;;5095400;28;20042;-62
2021/10/09 02:33:11;;;;;;;33.20;25.35;;;10.30;99.90;;;;;;5113702;28;20031;-63
2021/10/09 02:35:37;;;;;;;40.30;26.60;;;10.30;99.90;;;;;;5113518;28;20033;-63
2021/10/09 02:38:04;;;;;;;36.38;27.08;;;10.30;99.90;;;;;;5113918;28;20041;-63
2021/10/09 02:40:30;;;;;;;35.50;25.83;;;10.30;99.90;;;;;;5113372;28;20096;-62
2021/10/09 02:42:56;;;;;;;38.33;25.45;;;10.20;99.90;;;;;;5113596;28;20374;-62
2021/10/09 02:45:22;;;;;;;36.15;25.00;;;10.20;99.90;;;;;;5113499;28;20456;-62
2021/10/09 02:47:47;;;;;;;38.90;27.02;;;10.20;99.90;;;;;;5113364;28;20035;-62
2021/10/09 02:50:14;;;;;;;36.03;27.02;;;10.20;99.90;;;;;;5113231;28;20073;-62
2021/10/09 02:52:42;;;;;;;43.85;28.20;;;10.20;99.90;;;;;;5113025;28;20078;-62
2021/10/09 02:55:09;;;;;;;38.15;25.48;;;10.10;99.90;;;;;;5095112;28;20039;-62
2021/10/09 02:57:36;;;;;;;37.85;25.90;;;10.20;99.90;;;;;;5113111;28;20118;-62
2021/10/09 03:00:04;;;;;;;45.90;28.88;;;10.20;99.90;;;;;;5113167;28;20116;-62
2021/10/09 03:02:29;;;;;;;51.15;31.75;;;10.20;99.90;;;;;;5113115;28;20039;-62
2021/10/09 03:04:55;;;;;;;41.78;30.38;;;10.20;99.90;;;;;;5112902;28;20420;-62
2021/10/09 03:07:21;;;;;;;64.63;35.60;;;10.20;99.90;;;;;;5112828;28;20418;-62
2021/10/09 03:09:46;;;;;;;48.85;29.90;;;10.20;99.90;;;;;;5112711;28;20363;-62
2021/10/09 03:12:12;;;;;;;55.30;32.50;;;10.20;99.90;;;;;;5112947;28;20035;-62
2021/10/09 03:14:37;;;;;;;52.95;32.85;;;10.30;99.90;;;;;;5112732;28;20040;-62
2021/10/09 03:17:03;;;;;;;57.60;34.90;;;10.30;99.90;;;;;;5112848;28;20111;-62
2021/10/09 03:19:29;;;;;;;102.50;37.97;;;10.30;99.90;;;;;;5112632;28;20425;-62
2021/10/09 03:21:54;;;;;;;83.22;35.28;;;10.30;99.90;;;;;;5112508;28;20483;-62
2021/10/09 03:24:20;;;;;;;113.40;36.97;;;10.30;99.90;;;;;;5112470;28;20059;-62
2021/10/09 03:26:46;;;;;;;88.63;34.60;;;10.30;99.90;;;;;;5112469;28;20047;-62
2021/10/09 03:29:11;;;;;;;121.15;36.50;;;10.20;99.90;;;;;;5112641;28;20132;-62
2021/10/09 03:31:37;;;;;;;66.07;33.47;;;10.20;99.90;;;;;;5094557;28;20473;-62
2021/10/09 03:34:03;;;;;;;82.80;33.10;;;10.20;99.90;;;;;;5112349;28;20042;-62
2021/10/09 03:36:28;;;;;;;56.67;32.67;;;10.20;99.90;;;;;;5112665;28;20074;-62
2021/10/09 03:38:54;;;;;;;94.00;34.13;;;10.20;99.90;;;;;;5112494;28;20046;-62
2021/10/09 03:41:20;;;;;;;82.10;33.00;;;10.20;99.90;;;;;;5112222;28;20096;-62
2021/10/09 03:43:46;;;;;;;101.95;32.13;;;10.10;99.90;;;;;;5112433;28;20039;-62
2021/10/09 03:53:59;;;;;;;45.97;26.02;;;10.10;99.90;;;;;;5112508;28;20043;-62
2021/10/09 03:56:25;;;;;;;53.97;28.83;;;10.10;99.90;;;;;;5112540;28;20070;-62
2021/10/09 03:58:50;;;;;;;71.32;29.02;;;10.00;99.90;;;;;;5112298;28;20039;-62
2021/10/09 04:01:16;;;;;;;39.47;25.92;;;9.90;99.90;;;;;;5112122;28;20032;-63
2021/10/09 04:03:42;;;;;;;65.32;26.77;;;9.90;99.90;;;;;;5111968;28;20036;-62
2021/10/09 04:06:08;;;;;;;105.18;27.65;;;9.90;99.90;;;;;;5112003;28;20035;-62
2021/10/09 04:08:34;;;;;;;58.22;26.25;;;9.80;99.90;;;;;;5112149;28;20043;-62
2021/10/09 04:10:59;;;;;;;59.53;23.98;;;9.90;99.90;;;;;;5112110;28;20115;-62
2021/10/09 04:13:25;;;;;;;103.50;27.67;;;9.90;99.90;;;;;;5112021;28;20039;-63
2021/10/09 04:15:50;;;;;;;137.90;28.42;;;9.80;99.90;;;;;;5111911;28;20065;-62
2021/10/09 04:18:16;;;;;;;95.32;27.10;;;9.80;99.90;;;;;;5111873;28;20085;-62
2021/10/09 04:20:42;;;;;;;140.63;30.27;;;9.70;99.90;;;;;;5111909;28;20118;-62
2021/10/09 04:23:08;;;;;;;51.38;25.95;;;9.70;99.90;;;;;;5111809;28;20047;-62
2021/10/09 04:25:33;;;;;;;79.57;27.33;;;9.70;99.90;;;;;;5112723;28;20043;-62
2021/10/09 04:27:59;;;;;;;199.68;35.20;;;9.80;99.90;;;;;;5115932;28;20439;-62
2021/10/09 04:30:25;;;;;;;77.63;26.45;;;9.70;99.90;;;;;;5115949;28;20036;-63
2021/10/09 04:32:50;;;;;;;97.95;29.15;;;9.70;99.90;;;;;;5115906;28;20110;-62
2021/10/09 04:35:16;;;;;;;42.10;26.38;;;9.70;99.90;;;;;;5115972;28;20128;-62
2021/10/09 04:37:42;;;;;;;116.30;30.13;;;9.70;99.90;;;;;;5116334;28;20433;-63
2021/10/09 04:40:09;;;;;;;153.95;32.90;;;9.60;99.90;;;;;;5115899;28;20035;-62
2021/10/09 04:42:34;;;;;;;146.57;34.47;;;9.70;99.90;;;;;;5115495;28;20039;-62
2021/10/09 04:45:00;;;;;;;68.88;27.20;;;9.70;99.90;;;;;;5115669;28;20069;-63
2021/10/09 04:47:26;;;;;;;59.92;27.77;;;9.70;99.90;;;;;;5115589;28;20047;-62
2021/10/09 04:49:51;;;;;;;107.00;30.55;;;9.70;99.90;;;;;;5115653;28;20031;-62
2021/10/09 04:52:17;;;;;;;69.53;28.27;;;9.80;99.90;;;;;;5115740;28;20036;-62
2021/10/09 04:54:43;;;;;;;103.13;32.70;;;9.80;99.90;;;;;;5115500;28;20051;-62
2021/10/09 04:57:08;;;;;;;79.57;31.73;;;9.80;99.90;;;;;;5115425;28;20474;-62
2021/10/09 04:59:34;;;;;;;72.95;30.63;;;9.80;99.90;;;;;;5115335;28;20081;-61
2021/10/09 05:01:59;;;;;;;58.65;30.63;;;9.70;99.90;;;;;;5115705;28;20044;-62
2021/10/09 05:04:25;;;;;;;50.05;30.02;;;9.70;99.90;;;;;;5115352;28;20047;-62
2021/10/09 05:06:51;;;;;;;66.28;33.75;;;9.80;99.90;;;;;;5115296;28;20443;-62
2021/10/09 05:09:16;;;;;;;74.53;33.85;;;9.80;99.90;;;;;;5115311;28;20043;-62
2021/10/09 05:11:42;;;;;;;100.30;36.38;;;9.90;99.90;;;;;;5115187;28;20035;-62
2021/10/09 05:14:07;;;;;;;66.43;34.05;;;9.90;99.90;;;;;;5115386;28;20382;-62
2021/10/09 05:16:33;;;;;;;65.25;32.67;;;9.80;99.90;;;;;;5115108;28;20051;-62
2021/10/09 05:18:58;;;;;;;55.15;32.60;;;9.90;99.90;;;;;;5115037;28;20070;-62
2021/10/09 05:21:24;;;;;;;103.20;38.30;;;9.80;99.90;;;;;;5115084;28;20040;-62
2021/10/09 05:23:50;;;;;;;67.78;34.80;;;9.90;99.90;;;;;;5115002;28;20197;-62
2021/10/09 05:26:16;;;;;;;72.05;34.38;;;9.90;99.90;;;;;;5114904;28;20506;-62
2021/10/09 05:28:46;;;;;;;68.35;35.58;;;9.90;99.90;;;;;;5114808;28;20051;-62
2021/10/09 05:31:21;;;;;;;59.92;33.92;;;9.90;99.90;;;;;;5114747;28;20050;-62
2021/10/09 05:33:47;;;;;;;60.88;35.67;;;9.90;99.90;;;;;;5115045;28;20053;-62
2021/10/09 05:36:13;;;;;;;65.45;36.33;;;9.80;99.90;;;;;;5095874;28;20059;-62
2021/10/09 05:38:38;;;;;;;78.55;38.35;;;9.90;99.90;;;;;;5113596;28;20141;-62
2021/10/09 05:41:05;;;;;;;65.35;35.53;;;9.80;99.90;;;;;;5114910;28;20050;-62
2021/10/09 05:43:31;;;;;;;70.28;37.50;;;9.80;99.90;;;;;;5114759;28;20383;-62
2021/10/09 05:45:58;;;;;;;83.55;38.42;;;9.80;99.90;;;;;;5114561;28;20495;-62
2021/10/09 05:48:24;;;;;;;65.13;36.78;;;9.80;99.90;;;;;;5114849;28;20035;-62
2021/10/09 05:56:06;;;;;;;80.68;38.58;;;9.80;99.90;;;;;;5114227;28;20123;-62
2021/10/09 05:58:44;;;;;;;82.10;41.47;;;9.80;99.90;;;;;;5114448;28;20089;-62
2021/10/09 06:26:15;;;;;;;84.93;42.65;;;9.80;99.90;;;;;;5113786;28;20119;-62
2021/10/09 07:00:22;;;;;;;84.00;42.63;;;10.00;99.90;;;;;;5112993;28;20481;-60
2021/10/09 07:02:47;;;;;;;86.90;45.88;;;10.00;99.90;;;;;;5112898;28;20160;-62
2021/10/09 07:05:14;;;;;;;87.70;42.65;;;10.00;99.90;;;;;;5112811;28;20398;-61
2021/10/09 07:07:44;;;;;;;87.93;44.13;;;10.00;99.90;;;;;;5112893;28;20388;-62
2021/10/09 07:10:09;;;;;;;;;;;10.00;99.90;;;;;;5113380;28;20090;-62
2021/10/09 07:12:36;;;;;;;95.68;46.22;;;10.00;99.90;;;;;;5112751;28;20375;-61
2021/10/09 07:15:02;;;;;;;81.60;44.53;;;10.00;99.90;;;;;;5112617;28;20504;-62
2021/10/09 07:17:28;;;;;;;86.18;44.30;;;10.00;99.90;;;;;;5112640;28;20040;-62
2021/10/09 07:19:53;;;;;;;91.57;44.05;;;10.10;99.90;;;;;;5112829;28;20044;-62
2021/10/09 07:22:19;;;;;;;94.20;45.50;;;10.10;99.90;;;;;;5094398;28;20040;-61
2021/10/09 07:24:44;;;;;;;80.00;43.20;;;10.10;99.90;;;;;;5112361;28;20058;-60
2021/10/09 07:27:10;;;;;;;86.63;43.38;;;10.10;99.90;;;;;;5112617;28;20393;-60
2021/10/09 07:29:38;;;;;;;84.15;43.50;;;10.10;99.90;;;;;;5112488;28;20489;-61
2021/10/09 07:32:04;;;;;;;84.78;41.65;;;10.20;99.90;;;;;;5112366;28;20050;-61
2021/10/09 07:34:29;;;;;;;80.38;43.70;;;10.20;99.90;;;;;;5112512;28;20039;-60
2021/10/09 07:36:55;;;;;;;75.82;42.67;;;10.20;99.90;;;;;;5112873;28;20120;-61
2021/10/09 07:39:21;;;;;;;76.93;42.50;;;10.20;99.90;;;;;;5094612;28;20372;-61
2021/10/09 07:41:51;;;;;;;78.65;41.17;;;10.20;99.90;;;;;;5112485;28;20043;-61
2021/10/09 07:44:20;;;;;;;76.35;42.13;;;10.20;99.90;;;;;;5112550;28;20062;-61
2021/10/09 07:46:46;;;;;;;75.10;41.35;;;10.20;99.90;;;;;;5112228;28;20040;-62
2021/10/09 07:49:11;;;;;;;77.05;41.85;;;10.20;99.90;;;;;;5108576;28;20043;-60
2021/10/09 07:51:37;;;;;;;72.70;42.70;;;10.20;99.90;;;;;;5074141;28;20059;-61
2021/10/09 07:54:04;;;;;;;74.30;43.05;;;10.20;99.90;;;;;;5107244;28;20031;-61
2021/10/09 07:56:30;;;;;;;80.60;42.53;;;10.20;99.90;;;;;;5095860;28;20039;-61
2021/10/09 07:58:56;;;;;;;76.45;40.58;;;10.30;99.90;;;;;;5091841;28;20483;-62
2021/10/09 08:01:21;;;;;;;66.82;41.15;;;10.30;99.90;;;;;;5091375;28;20036;-61
2021/10/09 08:03:47;;;;;;;68.28;40.80;;;10.30;99.90;;;;;;5092015;28;20196;-60
2021/10/09 08:06:13;;;;;;;66.05;39.63;;;10.30;99.90;;;;;;5091965;28;20108;-61
2021/10/09 08:08:39;;;;;;;66.43;39.00;;;10.30;99.90;;;;;;5091907;28;20047;-60
2021/10/09 08:11:04;;;;;;;69.97;39.45;;;10.30;99.90;;;;;;5091695;28;20474;-62
2021/10/09 08:13:30;;;;;;;58.38;37.63;;;10.30;99.90;;;;;;5091595;28;20225;-61
2021/10/09 08:15:56;;;;;;;67.75;40.40;;;10.30;99.90;;;;;;5091549;28;20040;-60
2021/10/09 08:18:22;;;;;;;65.43;39.95;;;10.40;99.90;;;;;;5091605;28;20055;-61
2021/10/09 08:20:51;;;;;;;68.65;40.03;;;10.40;99.90;;;;;;5091823;28;20135;-60
2021/10/09 08:23:21;;;;;;;64.70;40.33;;;10.40;99.90;;;;;;5091425;28;20051;-61
2021/10/09 08:36:51;;;;;;;56.97;37.28;;;10.40;99.90;;;;;;5049050;28;20041;-61
2021/10/09 08:39:17;;;;;;;61.43;36.53;;;10.50;99.90;;;;;;5049027;28;20041;-61
2021/10/09 08:41:46;;;;;;;62.10;37.30;;;10.40;99.90;;;;;;5049054;28;20114;-61
2021/10/09 08:44:12;;;;;;;63.40;37.05;;;10.40;99.90;;;;;;5049054;28;20041;-60
2021/10/09 08:46:38;;;;;;;64.38;38.75;;;10.40;99.90;;;;;;5048894;28;20399;-61
2021/10/09 08:49:04;;;;;;;66.90;39.17;;;10.40;99.90;;;;;;5048899;28;20045;-60
2021/10/09 08:51:30;;;;;;;62.70;38.72;;;10.40;99.90;;;;;;5048794;28;20037;-61
2021/10/09 08:54:05;;;;;;;64.32;37.58;;;10.40;99.90;;;;;;5049205;28;20048;-61
2021/10/09 08:56:40;;;;;;;63.38;38.33;;;10.50;99.90;;;;;;5048965;28;20064;-61
2021/10/09 08:59:23;;;;;;;71.78;39.50;;;10.40;99.90;;;;;;5048882;28;20045;-62
2021/10/09 09:02:19;;;;;;;66.07;39.63;;;10.50;99.90;;;;;;5048900;28;20052;-61
2021/10/09 09:05:00;;;;;;;72.18;40.22;;;10.50;99.90;;;;;;5032579;28;20700;-62
2021/10/09 09:07:45;;;;;;;74.10;39.38;;;10.60;99.90;;;;;;5057304;28;20056;-61
2021/10/09 09:33:05;;;;;;;63.40;38.35;;;11.60;99.90;;;;;;4973233;28;20048;-61
2021/10/09 09:36:05;;;;;;;58.75;35.67;;;11.70;99.90;;;;;;4973278;28;20042;-61
2021/10/09 09:41:24;;;;;;;55.20;32.50;;;12.00;99.90;;;;;;4973186;28;20047;-62
2021/10/09 09:43:52;;;;;;;55.35;35.25;;;12.10;99.90;;;;;;4973199;28;20142;-61
2021/10/09 09:46:24;;;;;;;51.33;33.05;;;12.30;99.90;;;;;;4977893;28;20043;-62
2021/10/09 09:48:51;;;;;;;48.83;32.75;;;12.40;99.90;;;;;;5012159;28;20080;-63
2021/10/09 09:51:19;;;;;;;51.95;31.13;;;12.50;99.90;;;;;;5012061;28;20037;-62
2021/10/09 09:53:46;;;;;;;44.28;30.88;;;12.60;99.90;;;;;;5011811;28;20531;-61
2021/10/09 09:56:13;;;;;;;49.05;29.38;;;12.70;99.90;;;;;;5012114;28;20574;-61
2021/10/09 09:58:41;;;;;;;45.00;30.27;;;12.80;99.90;;;;;;5012115;28;20041;-61
2021/10/09 10:01:08;;;;;;;49.58;29.65;;;12.90;99.90;;;;;;5012149;28;20049;-62
2021/10/09 10:03:35;;;;;;;43.47;28.90;;;13.10;99.90;;;;;;5011951;28;20627;-61
2021/10/09 10:06:02;;;;;;;43.03;29.98;;;13.20;99.90;;;;;;5017153;28;20046;-61
2021/10/09 10:08:29;;;;;;;48.70;27.55;;;13.30;99.90;;;;;;5094256;28;20039;-62
2021/10/09 10:10:56;;;;;;;47.08;29.20;;;13.50;99.90;;;;;;5094091;28;20044;-61
2021/10/09 10:13:27;;;;;;;46.17;28.73;;;13.60;99.90;;;;;;5093988;28;20040;-61
2021/10/09 10:15:55;;;;;;;39.75;28.50;;;13.70;99.90;;;;;;5075474;28;20048;-61
2021/10/09 10:18:43;;;;;;;39.28;27.13;;;13.70;99.90;;;;;;5093540;28;20047;-61
2021/10/09 10:21:09;;;;;;;46.80;27.85;;;13.80;99.90;;;;;;5093661;28;20048;-61
2021/10/09 10:23:41;;;;;;;43.70;28.13;;;13.90;99.90;;;;;;5092324;28;20516;-61
2021/10/09 10:26:18;;;;;;;44.20;28.48;;;13.80;99.90;;;;;;5093402;28;20059;-61
2021/10/09 10:28:45;;;;;;;42.83;27.75;;;13.90;99.90;;;;;;5093371;28;20069;-60
2021/10/09 10:31:11;;;;;;;46.17;26.92;;;14.00;99.90;;;;;;5093225;28;20390;-61
2021/10/09 10:33:42;;;;;;;40.33;28.10;;;14.00;99.90;;;;;;5093309;28;20047;-62
2021/10/09 10:36:11;;;;;;;39.20;27.30;;;13.90;99.90;;;;;;5093408;28;20108;-61
2021/10/09 10:38:46;;;;;;;42.78;27.92;;;14.00;99.90;;;;;;5093246;28;20047;-62
2021/10/09 10:41:17;;;;;;;39.78;26.73;;;14.10;99.90;;;;;;5093007;28;20486;-62
2021/10/09 10:49:01;;;;;;;38.47;27.20;;;14.30;99.90;;;;;;5093063;28;20047;-62
2021/10/09 10:51:53;;;;;;;41.88;27.63;;;14.20;99.90;;;;;;5092946;28;20116;-62
2021/10/09 10:57:01;;;;;;;40.05;26.77;;;14.40;99.90;;;;;;5104176;28;20428;-61
2021/10/09 10:59:52;;;;;;;35.10;24.70;;;14.50;99.90;;;;;;5112011;28;20074;-62
2021/10/09 11:02:28;;;;;;;34.33;24.65;;;14.70;99.90;;;;;;5113061;28;20089;-61
2021/10/09 11:05:02;;;;;;;36.47;25.15;;;14.80;99.90;;;;;;5112894;28;20039;-61
2021/10/09 11:07:39;;;;;;;33.80;23.88;;;14.80;99.90;;;;;;5128847;27;20477;-62
2021/10/09 11:10:10;;;;;;;30.77;24.50;;;15.00;99.90;;;;;;5113151;28;20088;-62
2021/10/09 11:12:38;;;;;;;36.60;24.33;;;15.00;99.90;;;;;;5112833;28;20036;-61
2021/10/09 11:15:44;;;;;;;31.92;21.90;;;15.00;99.90;;;;;;5112755;28;20405;-62
2021/10/09 11:18:09;;;;;;;37.58;24.48;;;15.20;99.90;;;;;;5069901;28;20045;-62
2021/10/09 11:20:38;;;;;;;33.30;23.38;;;15.30;99.90;;;;;;5070060;28;20041;-61
2021/10/09 11:23:09;;;;;;;31.70;22.00;;;15.40;99.90;;;;;;5069770;28;20063;-61
2021/10/09 11:25:46;;;;;;;30.63;22.75;;;15.50;99.90;;;;;;5069642;28;20060;-63
2021/10/09 11:28:25;;;;;;;31.55;22.08;;;15.50;99.90;;;;;;5069830;28;20487;-62
2021/10/09 11:30:51;;;;;;;32.03;20.25;;;15.70;99.90;;;;;;5069898;28;20051;-61
2021/10/09 11:33:26;;;;;;;31.23;21.95;;;15.90;99.90;;;;;;5053080;28;20040;-62
2021/10/09 11:35:54;;;;;;;29.70;19.70;;;15.90;99.90;;;;;;5052581;28;20052;-62
2021/10/09 11:38:23;;;;;;;31.92;21.13;;;16.10;99.90;;;;;;5069627;28;20056;-62
2021/10/09 11:40:57;;;;;;;30.90;20.08;;;16.20;99.90;;;;;;5069721;28;20063;-62
2021/10/09 11:46:28;;;;;;;27.90;17.35;;;16.40;99.90;;;;;;5069495;28;20048;-62
2021/10/09 11:54:45;;;;;;;25.45;17.30;;;16.70;99.90;;;;;;5091466;28;20122;-62
2021/10/09 11:57:11;;;;;;;30.83;17.08;;;16.70;99.90;;;;;;5112270;28;20538;-62
2021/10/09 11:59:39;;;;;;;24.95;16.25;;;16.80;99.90;;;;;;5112327;28;20146;-62
2021/10/09 12:02:09;;;;;;;19.45;14.80;;;16.90;99.90;;;;;;5112277;28;20043;-62
2021/10/09 12:04:35;;;;;;;23.92;15.70;;;16.80;99.90;;;;;;5112136;28;20044;-62
2021/10/09 12:09:38;;;;;;;24.13;15.88;;;16.50;99.90;;;;;;5112304;28;20040;-62
2021/10/09 12:12:20;;;;;;;20.20;15.20;;;16.50;99.90;;;;;;5112049;28;20072;-62
2021/10/09 12:14:47;;;;;;;21.02;15.48;;;16.60;99.90;;;;;;5112033;28;20040;-63
2021/10/09 12:17:13;;;;;;;24.73;16.05;;;16.60;99.90;;;;;;5111922;28;20089;-62
2021/10/09 12:19:39;;;;;;;19.98;15.18;;;16.60;99.90;;;;;;5112073;28;20082;-63
2021/10/09 12:22:14;;;;;;;23.25;15.30;;;16.70;99.90;;;;;;5111987;28;20069;-63
2021/10/09 12:24:50;;;;;;;26.58;15.90;;;16.70;99.90;;;;;;5111786;28;20059;-63
2021/10/09 12:27:22;;;;;;;23.15;14.98;;;16.80;99.90;;;;;;5111640;28;20043;-63
2021/10/09 12:30:03;;;;;;;20.80;15.10;;;16.80;99.90;;;;;;5111791;28;20097;-62
2021/10/09 12:32:39;;;;;;;23.38;15.07;;;16.90;99.90;;;;;;5111880;28;20048;-63
2021/10/09 12:35:10;;;;;;;24.75;15.27;;;16.80;99.90;;;;;;5111710;28;20060;-62
2021/10/09 12:37:38;;;;;;;22.98;15.82;;;16.90;99.90;;;;;;5111763;28;20389;-62
2021/10/09 12:40:16;;;;;;;26.02;15.35;;;16.90;99.90;;;;;;5111776;28;20436;-62
2021/10/09 12:42:56;;;;;;;25.92;15.48;;;16.90;99.90;;;;;;5112034;28;20047;-63
2021/10/09 12:45:24;;;;;;;25.63;14.35;;;16.70;99.90;;;;;;5111740;28;20102;-63
2021/10/09 12:47:50;;;;;;;21.27;14.65;;;16.70;99.90;;;;;;5114539;28;20083;-63
2021/10/09 12:50:18;;;;;;;21.30;14.60;;;16.80;99.90;;;;;;5115577;28;20044;-63
2021/10/09 12:52:44;;;;;;;21.50;14.35;;;16.70;99.90;;;;;;5115534;28;20404;-63
2021/10/09 12:55:10;;;;;;;25.75;15.20;;;16.80;99.90;;;;;;5115791;28;20032;-63
2021/10/09 12:57:46;;;;;;;21.70;14.90;;;16.80;99.90;;;;;;5115536;28;20046;-63
2021/10/09 13:00:12;;;;;;;25.67;14.45;;;16.80;99.90;;;;;;5115660;28;20044;-63
2021/10/09 13:02:37;;;;;;;21.38;14.65;;;16.90;99.90;;;;;;5115702;28;20142;-63
2021/10/09 13:05:03;;;;;;;21.13;15.05;;;16.90;99.90;;;;;;5115379;28;20043;-62
2021/10/09 13:07:29;;;;;;;18.85;14.07;;;16.90;99.90;;;;;;5115122;28;20048;-62
2021/10/09 13:09:54;;;;;;;19.23;13.93;;;16.90;99.90;;;;;;5115501;28;20123;-63
2021/10/09 13:12:20;;;;;;;25.83;13.40;;;16.90;99.90;;;;;;5115413;28;20415;-63
2021/10/09 13:14:46;;;;;;;22.92;13.77;;;16.90;99.90;;;;;;5115158;28;20071;-63
2021/10/09 13:17:11;;;;;;;23.27;13.35;;;16.90;99.90;;;;;;5115237;28;20046;-63
2021/10/09 13:19:37;;;;;;;21.05;13.23;;;16.80;99.90;;;;;;5115135;28;20040;-63
2021/10/09 13:22:03;;;;;;;19.80;12.85;;;17.00;99.90;;;;;;5115146;28;20039;-63
2021/10/09 13:24:28;;;;;;;23.05;14.15;;;17.00;99.90;;;;;;5115171;28;20074;-63
2021/10/09 13:26:54;;;;;;;22.17;13.52;;;17.00;99.90;;;;;;5115396;28;20788;-64
2021/10/09 13:29:20;;;;;;;22.73;14.00;;;17.00;99.90;;;;;;5114982;28;20055;-63
2021/10/09 13:31:45;;;;;;;21.73;12.55;;;17.00;99.90;;;;;;5114952;28;20092;-63
2021/10/09 13:34:11;;;;;;;20.27;12.77;;;17.00;99.90;;;;;;5115203;28;20040;-63
2021/10/09 13:36:37;;;;;;;20.90;12.70;;;17.00;99.90;;;;;;5114793;28;20044;-63
2021/10/09 13:39:03;;;;;;;21.75;13.48;;;17.00;99.90;;;;;;5114840;28;20039;-62
2021/10/09 13:41:29;;;;;;;17.88;13.02;;;17.00;99.90;;;;;;5114617;28;20039;-63
2021/10/09 13:43:54;;;;;;;21.77;12.15;;;16.90;99.90;;;;;;5096563;28;20071;-63
2021/10/09 13:46:20;;;;;;;25.83;13.50;;;16.90;99.90;;;;;;5114487;28;20035;-63
2021/10/09 13:48:47;;;;;;;20.83;12.48;;;16.90;99.90;;;;;;5114514;28;20501;-63
2021/10/09 13:51:13;;;;;;;17.60;12.63;;;16.90;99.90;;;;;;5114433;28;20050;-63
2021/10/09 13:53:41;;;;;;;18.80;13.00;;;16.80;99.90;;;;;;5114431;28;20389;-63
2021/10/09 13:56:06;;;;;;;21.98;13.23;;;16.90;99.90;;;;;;5114417;28;20036;-63
2021/10/09 13:58:32;;;;;;;18.35;13.02;;;16.90;99.90;;;;;;5113272;28;20118;-63
2021/10/09 14:00:58;;;;;;;18.58;12.27;;;16.80;99.90;;;;;;5095663;28;20433;-63
2021/10/09 14:03:25;;;;;;;22.48;13.57;;;16.80;99.90;;;;;;5114258;28;20071;-63
2021/10/09 14:05:51;;;;;;;21.60;13.10;;;16.80;99.90;;;;;;5114100;28;20054;-63
2021/10/09 14:08:17;;;;;;;22.73;13.13;;;16.80;99.90;;;;;;5114194;28;20031;-62
2021/10/09 14:10:43;;;;;;;23.13;14.73;;;16.90;99.90;;;;;;5114267;28;20036;-63
2021/10/09 14:13:11;;;;;;;23.58;12.95;;;16.80;99.90;;;;;;5114106;28;20140;-63
2021/10/09 14:15:40;;;;;;;32.28;14.40;;;16.70;99.90;;;;;;5114484;28;20047;-63
2021/10/09 14:18:06;;;;;;;25.17;13.00;;;16.80;99.90;;;;;;5113919;28;20091;-62
2021/10/09 14:20:32;;;;;;;23.33;13.10;;;16.70;99.90;;;;;;5114139;28;20111;-63
2021/10/09 14:23:01;;;;;;;21.58;12.35;;;16.70;99.90;;;;;;5114091;28;20413;-63
2021/10/09 14:25:31;;;;;;;33.42;13.45;;;16.80;99.90;;;;;;5113525;28;20063;-63
2021/10/09 14:27:58;;;;;;;18.10;12.98;;;16.70;99.90;;;;;;5113858;28;20044;-63
2021/10/09 14:30:24;;;;;;;17.05;12.82;;;16.70;99.90;;;;;;5113830;28;20115;-62
2021/10/09 14:32:50;;;;;;;23.08;13.80;;;16.70;99.90;;;;;;5113619;28;20145;-62
2021/10/09 14:35:16;;;;;;;21.98;12.25;;;16.60;99.90;;;;;;5113713;28;20031;-63
2021/10/09 14:37:42;;;;;;;29.88;12.00;;;16.60;99.90;;;;;;5113721;28;20044;-62
2021/10/09 14:40:08;;;;;;;18.40;11.77;;;16.50;99.90;;;;;;5113636;28;20393;-62
2021/10/09 14:42:34;;;;;;;18.42;11.65;;;16.50;99.90;;;;;;5113575;28;20036;-63